sensor_id;sensor_type;location;lat;lon;timestamp;P1;durP1;ratioP1;P2;durP2;ratioP2
17201;SDS011;8717;53.588;10.176;2024-01-30T00:00:14;9.57;;;6.30;;
17201;SDS011;8717;53.588;10.176;2024-01-30T00:02:42;7.80;;;5.87;;
17201;SDS011;8717;53.588;10.176;2024-01-30T00:05:12;9.63;;;6.03;;
17201;SDS011;8717;53.588;10.176;2024-01-30T00:07:39;9.60;;;6.13;;
17201;SDS011;8717;53.588;10.176;2024-01-30T00:10:06;9.27;;;6.17;;
17201;SDS011;8717;53.588;10.176;2024-01-30T00:12:33;8.43;;;6.47;;
17201;SDS011;8717;53.588;10.176;2024-01-30T00:15:00;9.33;;;6.40;;
17201;SDS011;8717;53.588;10.176;2024-01-30T00:17:29;9.50;;;6.63;;
17201;SDS011;8717;53.588;10.176;2024-01-30T00:19:56;8.33;;;5.70;;
17201;SDS011;8717;53.588;10.176;2024-01-30T00:22:25;9.67;;;6.27;;
17201;SDS011;8717;53.588;10.176;2024-01-30T00:24:52;8.23;;;5.90;;
17201;SDS011;8717;53.588;10.176;2024-01-30T00:27:19;8.57;;;6.07;;
17201;SDS011;8717;53.588;10.176;2024-01-30T00:29:46;10.37;;;6.70;;
17201;SDS011;8717;53.588;10.176;2024-01-30T00:32:13;9.13;;;6.00;;
17201;SDS011;8717;53.588;10.176;2024-01-30T00:34:41;6.77;;;5.63;;
17201;SDS011;8717;53.588;10.176;2024-01-30T00:37:08;7.53;;;5.60;;
17201;SDS011;8717;53.588;10.176;2024-01-30T00:39:36;7.63;;;6.10;;
17201;SDS011;8717;53.588;10.176;2024-01-30T00:42:03;8.43;;;5.87;;
17201;SDS011;8717;53.588;10.176;2024-01-30T00:44:31;8.23;;;5.90;;
17201;SDS011;8717;53.588;10.176;2024-01-30T00:47:00;8.23;;;5.43;;
17201;SDS011;8717;53.588;10.176;2024-01-30T00:49:28;7.80;;;5.87;;
17201;SDS011;8717;53.588;10.176;2024-01-30T00:51:55;7.93;;;5.73;;
17201;SDS011;8717;53.588;10.176;2024-01-30T00:54:22;7.40;;;6.00;;
17201;SDS011;8717;53.588;10.176;2024-01-30T00:56:50;7.83;;;5.83;;
17201;SDS011;8717;53.588;10.176;2024-01-30T00:59:17;6.70;;;5.27;;
17201;SDS011;8717;53.588;10.176;2024-01-30T01:01:44;8.80;;;6.33;;
17201;SDS011;8717;53.588;10.176;2024-01-30T01:04:11;7.80;;;5.70;;
17201;SDS011;8717;53.588;10.176;2024-01-30T01:06:38;7.67;;;6.03;;
17201;SDS011;8717;53.588;10.176;2024-01-30T01:09:07;8.37;;;5.60;;
17201;SDS011;8717;53.588;10.176;2024-01-30T01:11:34;10.17;;;6.23;;
17201;SDS011;8717;53.588;10.176;2024-01-30T01:14:04;9.53;;;5.97;;
17201;SDS011;8717;53.588;10.176;2024-01-30T01:16:31;8.30;;;6.33;;
17201;SDS011;8717;53.588;10.176;2024-01-30T01:18:58;7.70;;;5.63;;
17201;SDS011;8717;53.588;10.176;2024-01-30T01:21:26;7.40;;;5.80;;
17201;SDS011;8717;53.588;10.176;2024-01-30T01:23:53;8.80;;;5.93;;
17201;SDS011;8717;53.588;10.176;2024-01-30T01:26:19;8.27;;;6.00;;
17201;SDS011;8717;53.588;10.176;2024-01-30T01:28:47;9.40;;;5.87;;
17201;SDS011;8717;53.588;10.176;2024-01-30T01:31:15;8.13;;;5.73;;
17201;SDS011;8717;53.588;10.176;2024-01-30T01:33:42;8.07;;;5.73;;
17201;SDS011;8717;53.588;10.176;2024-01-30T01:36:09;8.50;;;5.50;;
17201;SDS011;8717;53.588;10.176;2024-01-30T01:38:36;7.40;;;5.67;;
17201;SDS011;8717;53.588;10.176;2024-01-30T01:41:03;7.77;;;5.70;;
17201;SDS011;8717;53.588;10.176;2024-01-30T01:43:30;7.23;;;6.10;;
17201;SDS011;8717;53.588;10.176;2024-01-30T01:45:56;6.87;;;5.53;;
17201;SDS011;8717;53.588;10.176;2024-01-30T01:48:25;6.73;;;5.60;;
17201;SDS011;8717;53.588;10.176;2024-01-30T01:50:52;8.20;;;6.07;;
17201;SDS011;8717;53.588;10.176;2024-01-30T01:53:19;8.80;;;6.10;;
17201;SDS011;8717;53.588;10.176;2024-01-30T01:55:46;9.23;;;6.00;;
17201;SDS011;8717;53.588;10.176;2024-01-30T01:58:14;9.17;;;6.83;;
17201;SDS011;8717;53.588;10.176;2024-01-30T02:00:41;8.13;;;6.00;;
17201;SDS011;8717;53.588;10.176;2024-01-30T02:03:08;9.93;;;6.20;;
17201;SDS011;8717;53.588;10.176;2024-01-30T02:05:38;6.67;;;5.80;;
17201;SDS011;8717;53.588;10.176;2024-01-30T02:08:07;7.53;;;6.00;;
17201;SDS011;8717;53.588;10.176;2024-01-30T02:10:35;9.00;;;6.03;;
17201;SDS011;8717;53.588;10.176;2024-01-30T02:13:01;9.37;;;6.83;;
17201;SDS011;8717;53.588;10.176;2024-01-30T02:15:29;8.53;;;6.20;;
17201;SDS011;8717;53.588;10.176;2024-01-30T02:17:56;8.23;;;6.50;;
17201;SDS011;8717;53.588;10.176;2024-01-30T02:20:23;7.37;;;5.93;;
17201;SDS011;8717;53.588;10.176;2024-01-30T02:22:52;8.20;;;6.23;;
17201;SDS011;8717;53.588;10.176;2024-01-30T02:25:29;9.40;;;6.60;;
17201;SDS011;8717;53.588;10.176;2024-01-30T02:27:57;8.03;;;6.23;;
17201;SDS011;8717;53.588;10.176;2024-01-30T02:30:24;10.40;;;6.50;;
17201;SDS011;8717;53.588;10.176;2024-01-30T02:32:51;9.20;;;6.53;;
17201;SDS011;8717;53.588;10.176;2024-01-30T02:35:18;8.63;;;6.47;;
17201;SDS011;8717;53.588;10.176;2024-01-30T02:37:44;9.30;;;6.63;;
17201;SDS011;8717;53.588;10.176;2024-01-30T02:40:13;8.27;;;6.13;;
17201;SDS011;8717;53.588;10.176;2024-01-30T02:42:40;7.97;;;6.27;;
17201;SDS011;8717;53.588;10.176;2024-01-30T02:45:08;9.17;;;6.47;;
17201;SDS011;8717;53.588;10.176;2024-01-30T02:47:35;10.57;;;6.60;;
17201;SDS011;8717;53.588;10.176;2024-01-30T02:50:02;10.47;;;6.47;;
17201;SDS011;8717;53.588;10.176;2024-01-30T02:52:30;9.33;;;6.77;;
17201;SDS011;8717;53.588;10.176;2024-01-30T02:54:57;9.40;;;6.67;;
17201;SDS011;8717;53.588;10.176;2024-01-30T02:57:25;10.80;;;6.77;;
17201;SDS011;8717;53.588;10.176;2024-01-30T02:59:52;11.03;;;6.93;;
17201;SDS011;8717;53.588;10.176;2024-01-30T03:02:20;9.97;;;7.07;;
17201;SDS011;8717;53.588;10.176;2024-01-30T03:04:46;8.40;;;6.60;;
17201;SDS011;8717;53.588;10.176;2024-01-30T03:07:13;9.17;;;6.73;;
17201;SDS011;8717;53.588;10.176;2024-01-30T03:09:41;8.57;;;7.03;;
17201;SDS011;8717;53.588;10.176;2024-01-30T03:12:08;8.30;;;6.57;;
17201;SDS011;8717;53.588;10.176;2024-01-30T03:14:37;9.80;;;7.17;;
17201;SDS011;8717;53.588;10.176;2024-01-30T03:17:04;7.83;;;6.70;;
17201;SDS011;8717;53.588;10.176;2024-01-30T03:19:31;10.00;;;6.90;;
17201;SDS011;8717;53.588;10.176;2024-01-30T03:21:58;10.23;;;7.13;;
17201;SDS011;8717;53.588;10.176;2024-01-30T03:24:25;9.10;;;7.30;;
17201;SDS011;8717;53.588;10.176;2024-01-30T03:26:51;10.70;;;6.83;;
17201;SDS011;8717;53.588;10.176;2024-01-30T03:29:19;9.20;;;6.83;;
17201;SDS011;8717;53.588;10.176;2024-01-30T03:31:47;9.27;;;6.73;;
17201;SDS011;8717;53.588;10.176;2024-01-30T03:34:14;10.93;;;6.97;;
17201;SDS011;8717;53.588;10.176;2024-01-30T03:36:40;9.73;;;6.80;;
17201;SDS011;8717;53.588;10.176;2024-01-30T03:39:07;9.60;;;7.37;;
17201;SDS011;8717;53.588;10.176;2024-01-30T03:41:34;8.20;;;6.40;;
17201;SDS011;8717;53.588;10.176;2024-01-30T03:44:01;10.07;;;7.23;;
17201;SDS011;8717;53.588;10.176;2024-01-30T03:46:28;10.87;;;7.40;;
17201;SDS011;8717;53.588;10.176;2024-01-30T03:48:56;9.07;;;7.00;;
17201;SDS011;8717;53.588;10.176;2024-01-30T03:51:22;10.27;;;6.83;;
17201;SDS011;8717;53.588;10.176;2024-01-30T03:53:49;10.40;;;7.60;;
17201;SDS011;8717;53.588;10.176;2024-01-30T03:56:16;9.90;;;7.20;;
17201;SDS011;8717;53.588;10.176;2024-01-30T03:58:43;10.33;;;7.17;;
17201;SDS011;8717;53.588;10.176;2024-01-30T04:01:12;10.07;;;7.13;;
17201;SDS011;8717;53.588;10.176;2024-01-30T04:03:39;8.83;;;6.97;;
17201;SDS011;8717;53.588;10.176;2024-01-30T04:06:07;9.10;;;7.13;;
17201;SDS011;8717;53.588;10.176;2024-01-30T04:08:34;10.23;;;7.13;;
17201;SDS011;8717;53.588;10.176;2024-01-30T04:11:02;11.10;;;7.23;;
17201;SDS011;8717;53.588;10.176;2024-01-30T04:13:30;9.70;;;7.17;;
17201;SDS011;8717;53.588;10.176;2024-01-30T04:15:58;13.33;;;7.70;;
17201;SDS011;8717;53.588;10.176;2024-01-30T04:18:26;11.30;;;8.10;;
17201;SDS011;8717;53.588;10.176;2024-01-30T04:20:53;11.30;;;7.93;;
17201;SDS011;8717;53.588;10.176;2024-01-30T04:23:21;11.90;;;8.03;;
17201;SDS011;8717;53.588;10.176;2024-01-30T04:25:48;11.00;;;7.73;;
17201;SDS011;8717;53.588;10.176;2024-01-30T04:28:14;10.93;;;8.20;;
17201;SDS011;8717;53.588;10.176;2024-01-30T04:30:41;10.80;;;8.17;;
17201;SDS011;8717;53.588;10.176;2024-01-30T04:33:08;11.53;;;7.40;;
17201;SDS011;8717;53.588;10.176;2024-01-30T04:35:36;10.63;;;8.07;;
17201;SDS011;8717;53.588;10.176;2024-01-30T04:38:03;10.87;;;7.80;;
17201;SDS011;8717;53.588;10.176;2024-01-30T04:40:31;9.70;;;8.30;;
17201;SDS011;8717;53.588;10.176;2024-01-30T04:42:57;10.93;;;7.70;;
17201;SDS011;8717;53.588;10.176;2024-01-30T04:45:24;11.83;;;8.20;;
17201;SDS011;8717;53.588;10.176;2024-01-30T04:47:51;11.63;;;8.33;;
17201;SDS011;8717;53.588;10.176;2024-01-30T04:50:18;11.47;;;8.43;;
17201;SDS011;8717;53.588;10.176;2024-01-30T04:52:44;10.87;;;8.07;;
17201;SDS011;8717;53.588;10.176;2024-01-30T04:55:11;12.37;;;8.10;;
17201;SDS011;8717;53.588;10.176;2024-01-30T04:57:39;11.80;;;8.17;;
17201;SDS011;8717;53.588;10.176;2024-01-30T05:00:06;10.93;;;8.07;;
17201;SDS011;8717;53.588;10.176;2024-01-30T05:02:34;10.17;;;8.30;;
17201;SDS011;8717;53.588;10.176;2024-01-30T05:05:00;10.40;;;8.00;;
17201;SDS011;8717;53.588;10.176;2024-01-30T05:07:27;12.43;;;8.63;;
17201;SDS011;8717;53.588;10.176;2024-01-30T05:09:54;9.90;;;8.10;;
17201;SDS011;8717;53.588;10.176;2024-01-30T05:12:21;12.57;;;8.00;;
17201;SDS011;8717;53.588;10.176;2024-01-30T05:14:49;12.93;;;8.60;;
17201;SDS011;8717;53.588;10.176;2024-01-30T05:17:16;64.47;;;11.03;;
17201;SDS011;8717;53.588;10.176;2024-01-30T05:19:43;13.67;;;8.40;;
17201;SDS011;8717;53.588;10.176;2024-01-30T05:22:09;13.03;;;8.30;;
17201;SDS011;8717;53.588;10.176;2024-01-30T05:24:40;11.77;;;9.40;;
17201;SDS011;8717;53.588;10.176;2024-01-30T05:27:07;12.83;;;9.13;;
17201;SDS011;8717;53.588;10.176;2024-01-30T05:29:34;9.47;;;8.03;;
17201;SDS011;8717;53.588;10.176;2024-01-30T05:32:02;13.03;;;8.90;;
17201;SDS011;8717;53.588;10.176;2024-01-30T05:34:36;12.17;;;8.90;;
17201;SDS011;8717;53.588;10.176;2024-01-30T05:37:03;13.43;;;8.60;;
17201;SDS011;8717;53.588;10.176;2024-01-30T05:39:30;14.57;;;9.77;;
17201;SDS011;8717;53.588;10.176;2024-01-30T05:41:58;12.60;;;9.23;;
17201;SDS011;8717;53.588;10.176;2024-01-30T05:44:25;12.57;;;9.20;;
17201;SDS011;8717;53.588;10.176;2024-01-30T05:46:51;11.53;;;9.27;;
17201;SDS011;8717;53.588;10.176;2024-01-30T05:49:20;12.00;;;8.40;;
17201;SDS011;8717;53.588;10.176;2024-01-30T05:51:47;13.00;;;9.00;;
17201;SDS011;8717;53.588;10.176;2024-01-30T05:54:14;14.73;;;9.80;;
17201;SDS011;8717;53.588;10.176;2024-01-30T05:56:41;10.90;;;8.87;;
17201;SDS011;8717;53.588;10.176;2024-01-30T05:59:08;12.90;;;9.27;;
17201;SDS011;8717;53.588;10.176;2024-01-30T06:01:35;11.97;;;8.77;;
17201;SDS011;8717;53.588;10.176;2024-01-30T06:04:02;16.47;;;9.87;;
17201;SDS011;8717;53.588;10.176;2024-01-30T06:06:31;12.50;;;9.60;;
17201;SDS011;8717;53.588;10.176;2024-01-30T06:08:58;12.00;;;9.43;;
17201;SDS011;8717;53.588;10.176;2024-01-30T06:11:25;12.70;;;10.70;;
17201;SDS011;8717;53.588;10.176;2024-01-30T06:13:52;13.50;;;9.70;;
17201;SDS011;8717;53.588;10.176;2024-01-30T06:16:19;13.73;;;9.70;;
17201;SDS011;8717;53.588;10.176;2024-01-30T06:18:47;14.57;;;10.20;;
17201;SDS011;8717;53.588;10.176;2024-01-30T06:21:14;14.67;;;10.33;;
17201;SDS011;8717;53.588;10.176;2024-01-30T06:23:43;14.03;;;10.00;;
17201;SDS011;8717;53.588;10.176;2024-01-30T06:26:10;15.30;;;9.90;;
17201;SDS011;8717;53.588;10.176;2024-01-30T06:28:37;12.10;;;9.13;;
17201;SDS011;8717;53.588;10.176;2024-01-30T06:31:04;14.80;;;9.27;;
17201;SDS011;8717;53.588;10.176;2024-01-30T06:33:31;17.10;;;10.10;;
17201;SDS011;8717;53.588;10.176;2024-01-30T06:35:58;12.30;;;9.87;;
17201;SDS011;8717;53.588;10.176;2024-01-30T06:38:25;12.07;;;9.20;;
17201;SDS011;8717;53.588;10.176;2024-01-30T06:40:53;12.10;;;9.77;;
17201;SDS011;8717;53.588;10.176;2024-01-30T06:43:20;13.37;;;10.13;;
17201;SDS011;8717;53.588;10.176;2024-01-30T06:45:48;19.30;;;13.20;;
17201;SDS011;8717;53.588;10.176;2024-01-30T06:48:17;23.07;;;15.00;;
17201;SDS011;8717;53.588;10.176;2024-01-30T06:50:43;31.87;;;18.67;;
17201;SDS011;8717;53.588;10.176;2024-01-30T06:53:11;25.00;;;15.80;;
17201;SDS011;8717;53.588;10.176;2024-01-30T06:55:38;20.07;;;12.63;;
17201;SDS011;8717;53.588;10.176;2024-01-30T06:58:06;13.53;;;11.20;;
17201;SDS011;8717;53.588;10.176;2024-01-30T07:00:33;14.93;;;10.83;;
17201;SDS011;8717;53.588;10.176;2024-01-30T07:03:00;15.43;;;10.63;;
17201;SDS011;8717;53.588;10.176;2024-01-30T07:05:27;14.83;;;10.93;;
17201;SDS011;8717;53.588;10.176;2024-01-30T07:07:53;12.70;;;10.30;;
17201;SDS011;8717;53.588;10.176;2024-01-30T07:10:20;16.93;;;15.10;;
17201;SDS011;8717;53.588;10.176;2024-01-30T07:12:47;16.23;;;13.70;;
17201;SDS011;8717;53.588;10.176;2024-01-30T07:15:15;12.63;;;9.90;;
17201;SDS011;8717;53.588;10.176;2024-01-30T07:17:44;13.63;;;10.03;;
17201;SDS011;8717;53.588;10.176;2024-01-30T07:20:11;13.27;;;10.60;;
17201;SDS011;8717;53.588;10.176;2024-01-30T07:22:38;12.87;;;9.83;;
17201;SDS011;8717;53.588;10.176;2024-01-30T07:25:08;14.23;;;9.70;;
17201;SDS011;8717;53.588;10.176;2024-01-30T07:27:35;14.13;;;10.00;;
17201;SDS011;8717;53.588;10.176;2024-01-30T07:30:02;14.07;;;10.30;;
17201;SDS011;8717;53.588;10.176;2024-01-30T07:32:30;11.07;;;9.90;;
17201;SDS011;8717;53.588;10.176;2024-01-30T07:34:57;15.50;;;11.07;;
17201;SDS011;8717;53.588;10.176;2024-01-30T07:37:24;12.87;;;10.53;;
17201;SDS011;8717;53.588;10.176;2024-01-30T07:39:50;15.37;;;10.63;;
17201;SDS011;8717;53.588;10.176;2024-01-30T07:42:17;12.33;;;10.23;;
17201;SDS011;8717;53.588;10.176;2024-01-30T07:44:44;12.63;;;10.07;;
17201;SDS011;8717;53.588;10.176;2024-01-30T07:47:10;15.67;;;10.90;;
17201;SDS011;8717;53.588;10.176;2024-01-30T07:49:38;15.23;;;11.70;;
17201;SDS011;8717;53.588;10.176;2024-01-30T07:52:05;14.83;;;10.87;;
17201;SDS011;8717;53.588;10.176;2024-01-30T07:54:32;15.40;;;11.10;;
17201;SDS011;8717;53.588;10.176;2024-01-30T07:57:00;15.57;;;11.37;;
17201;SDS011;8717;53.588;10.176;2024-01-30T07:59:26;20.47;;;11.70;;
17201;SDS011;8717;53.588;10.176;2024-01-30T08:01:53;17.97;;;11.67;;
17201;SDS011;8717;53.588;10.176;2024-01-30T08:04:20;13.53;;;10.73;;
17201;SDS011;8717;53.588;10.176;2024-01-30T08:06:48;15.17;;;10.57;;
17201;SDS011;8717;53.588;10.176;2024-01-30T08:09:15;13.87;;;10.50;;
17201;SDS011;8717;53.588;10.176;2024-01-30T08:11:41;15.67;;;11.67;;
17201;SDS011;8717;53.588;10.176;2024-01-30T08:14:08;16.73;;;11.00;;
17201;SDS011;8717;53.588;10.176;2024-01-30T08:16:35;12.63;;;10.60;;
17201;SDS011;8717;53.588;10.176;2024-01-30T08:19:02;16.63;;;10.93;;
17201;SDS011;8717;53.588;10.176;2024-01-30T08:21:29;15.23;;;11.17;;
17201;SDS011;8717;53.588;10.176;2024-01-30T08:24:02;13.73;;;11.07;;
17201;SDS011;8717;53.588;10.176;2024-01-30T08:26:29;15.13;;;10.80;;
17201;SDS011;8717;53.588;10.176;2024-01-30T08:28:56;15.07;;;11.50;;
17201;SDS011;8717;53.588;10.176;2024-01-30T08:31:22;14.17;;;11.37;;
17201;SDS011;8717;53.588;10.176;2024-01-30T08:33:49;15.20;;;10.70;;
17201;SDS011;8717;53.588;10.176;2024-01-30T08:36:16;14.67;;;10.93;;
17201;SDS011;8717;53.588;10.176;2024-01-30T08:38:43;14.33;;;10.97;;
17201;SDS011;8717;53.588;10.176;2024-01-30T08:41:11;15.23;;;11.70;;
17201;SDS011;8717;53.588;10.176;2024-01-30T08:43:38;15.90;;;10.67;;
17201;SDS011;8717;53.588;10.176;2024-01-30T08:46:04;14.60;;;11.53;;
17201;SDS011;8717;53.588;10.176;2024-01-30T08:48:31;14.63;;;11.10;;
17201;SDS011;8717;53.588;10.176;2024-01-30T08:50:58;15.10;;;11.43;;
17201;SDS011;8717;53.588;10.176;2024-01-30T08:53:25;16.00;;;12.07;;
17201;SDS011;8717;53.588;10.176;2024-01-30T08:55:51;14.83;;;11.33;;
17201;SDS011;8717;53.588;10.176;2024-01-30T08:58:19;17.50;;;12.47;;
17201;SDS011;8717;53.588;10.176;2024-01-30T09:00:46;14.23;;;10.67;;
17201;SDS011;8717;53.588;10.176;2024-01-30T09:03:13;15.70;;;11.67;;
17201;SDS011;8717;53.588;10.176;2024-01-30T09:05:39;13.77;;;11.00;;
17201;SDS011;8717;53.588;10.176;2024-01-30T09:08:06;17.10;;;11.27;;
17201;SDS011;8717;53.588;10.176;2024-01-30T09:10:33;14.50;;;10.70;;
17201;SDS011;8717;53.588;10.176;2024-01-30T09:12:59;15.27;;;11.30;;
17201;SDS011;8717;53.588;10.176;2024-01-30T09:15:28;16.23;;;11.43;;
17201;SDS011;8717;53.588;10.176;2024-01-30T09:17:54;17.17;;;12.70;;
17201;SDS011;8717;53.588;10.176;2024-01-30T09:20:21;16.37;;;11.63;;
17201;SDS011;8717;53.588;10.176;2024-01-30T09:22:48;13.30;;;10.80;;
17201;SDS011;8717;53.588;10.176;2024-01-30T09:25:15;14.27;;;11.23;;
17201;SDS011;8717;53.588;10.176;2024-01-30T09:27:43;14.07;;;10.90;;
17201;SDS011;8717;53.588;10.176;2024-01-30T09:30:10;16.77;;;11.40;;
17201;SDS011;8717;53.588;10.176;2024-01-30T09:32:40;15.17;;;11.57;;
17201;SDS011;8717;53.588;10.176;2024-01-30T09:35:07;17.47;;;11.83;;
17201;SDS011;8717;53.588;10.176;2024-01-30T09:37:34;13.23;;;10.60;;
17201;SDS011;8717;53.588;10.176;2024-01-30T09:40:01;14.43;;;11.47;;
17201;SDS011;8717;53.588;10.176;2024-01-30T09:42:33;16.57;;;11.23;;
17201;SDS011;8717;53.588;10.176;2024-01-30T09:45:01;15.23;;;10.60;;
17201;SDS011;8717;53.588;10.176;2024-01-30T09:47:30;15.07;;;10.93;;
17201;SDS011;8717;53.588;10.176;2024-01-30T09:49:59;15.93;;;11.07;;
17201;SDS011;8717;53.588;10.176;2024-01-30T09:52:28;15.93;;;10.90;;
17201;SDS011;8717;53.588;10.176;2024-01-30T09:54:55;15.60;;;11.40;;
17201;SDS011;8717;53.588;10.176;2024-01-30T09:57:22;13.07;;;10.30;;
17201;SDS011;8717;53.588;10.176;2024-01-30T09:59:51;14.20;;;11.13;;
17201;SDS011;8717;53.588;10.176;2024-01-30T10:02:19;13.33;;;10.67;;
17201;SDS011;8717;53.588;10.176;2024-01-30T10:04:47;15.17;;;10.47;;
17201;SDS011;8717;53.588;10.176;2024-01-30T10:07:16;12.77;;;9.63;;
17201;SDS011;8717;53.588;10.176;2024-01-30T10:09:42;12.30;;;9.93;;
17201;SDS011;8717;53.588;10.176;2024-01-30T10:12:09;14.13;;;10.17;;
17201;SDS011;8717;53.588;10.176;2024-01-30T10:14:37;14.53;;;10.50;;
17201;SDS011;8717;53.588;10.176;2024-01-30T10:17:04;13.53;;;9.93;;
17201;SDS011;8717;53.588;10.176;2024-01-30T10:19:31;12.00;;;9.87;;
17201;SDS011;8717;53.588;10.176;2024-01-30T10:21:59;12.20;;;10.43;;
17201;SDS011;8717;53.588;10.176;2024-01-30T10:24:27;12.83;;;10.20;;
17201;SDS011;8717;53.588;10.176;2024-01-30T10:26:55;13.27;;;10.87;;
17201;SDS011;8717;53.588;10.176;2024-01-30T10:29:22;14.53;;;10.97;;
17201;SDS011;8717;53.588;10.176;2024-01-30T10:31:57;15.37;;;9.67;;
17201;SDS011;8717;53.588;10.176;2024-01-30T10:34:24;14.33;;;9.67;;
17201;SDS011;8717;53.588;10.176;2024-01-30T10:36:56;11.50;;;9.93;;
17201;SDS011;8717;53.588;10.176;2024-01-30T10:39:29;12.70;;;8.90;;
17201;SDS011;8717;53.588;10.176;2024-01-30T10:41:59;13.27;;;10.23;;
17201;SDS011;8717;53.588;10.176;2024-01-30T10:44:33;13.93;;;9.50;;
17201;SDS011;8717;53.588;10.176;2024-01-30T10:47:06;12.67;;;9.20;;
17201;SDS011;8717;53.588;10.176;2024-01-30T10:49:37;10.87;;;9.03;;
17201;SDS011;8717;53.588;10.176;2024-01-30T10:52:05;12.87;;;10.00;;
17201;SDS011;8717;53.588;10.176;2024-01-30T10:54:35;13.77;;;9.33;;
17201;SDS011;8717;53.588;10.176;2024-01-30T10:57:03;11.30;;;9.53;;
17201;SDS011;8717;53.588;10.176;2024-01-30T10:59:31;11.67;;;9.40;;
17201;SDS011;8717;53.588;10.176;2024-01-30T11:01:58;13.13;;;9.50;;
17201;SDS011;8717;53.588;10.176;2024-01-30T11:04:26;13.87;;;9.97;;
17201;SDS011;8717;53.588;10.176;2024-01-30T11:06:53;11.03;;;8.97;;
17201;SDS011;8717;53.588;10.176;2024-01-30T11:09:20;13.40;;;9.40;;
17201;SDS011;8717;53.588;10.176;2024-01-30T11:11:55;10.17;;;8.73;;
17201;SDS011;8717;53.588;10.176;2024-01-30T11:14:25;11.37;;;9.80;;
17201;SDS011;8717;53.588;10.176;2024-01-30T11:16:52;13.30;;;9.30;;
17201;SDS011;8717;53.588;10.176;2024-01-30T11:19:22;11.30;;;9.30;;
17201;SDS011;8717;53.588;10.176;2024-01-30T11:21:50;12.63;;;9.10;;
17201;SDS011;8717;53.588;10.176;2024-01-30T11:24:18;12.97;;;8.73;;
17201;SDS011;8717;53.588;10.176;2024-01-30T11:26:47;11.00;;;8.97;;
17201;SDS011;8717;53.588;10.176;2024-01-30T11:29:16;10.80;;;8.37;;
17201;SDS011;8717;53.588;10.176;2024-01-30T11:31:51;12.17;;;8.83;;
17201;SDS011;8717;53.588;10.176;2024-01-30T11:34:18;13.17;;;9.53;;
17201;SDS011;8717;53.588;10.176;2024-01-30T11:36:46;11.33;;;8.60;;
17201;SDS011;8717;53.588;10.176;2024-01-30T11:39:20;11.63;;;8.70;;
17201;SDS011;8717;53.588;10.176;2024-01-30T11:41:47;12.10;;;8.37;;
17201;SDS011;8717;53.588;10.176;2024-01-30T11:44:18;14.03;;;9.03;;
17201;SDS011;8717;53.588;10.176;2024-01-30T11:46:46;10.97;;;7.93;;
17201;SDS011;8717;53.588;10.176;2024-01-30T11:49:13;10.03;;;8.33;;
17201;SDS011;8717;53.588;10.176;2024-01-30T11:51:39;9.23;;;8.03;;
17201;SDS011;8717;53.588;10.176;2024-01-30T11:54:07;11.77;;;8.57;;
17201;SDS011;8717;53.588;10.176;2024-01-30T11:56:33;12.20;;;8.83;;
17201;SDS011;8717;53.588;10.176;2024-01-30T11:59:00;11.10;;;8.90;;
17201;SDS011;8717;53.588;10.176;2024-01-30T12:01:28;10.73;;;8.30;;
17201;SDS011;8717;53.588;10.176;2024-01-30T12:03:56;10.73;;;8.20;;
17201;SDS011;8717;53.588;10.176;2024-01-30T12:06:23;13.43;;;9.07;;
17201;SDS011;8717;53.588;10.176;2024-01-30T12:08:57;12.57;;;9.03;;
17201;SDS011;8717;53.588;10.176;2024-01-30T12:11:24;10.70;;;8.20;;
17201;SDS011;8717;53.588;10.176;2024-01-30T12:13:51;12.10;;;8.53;;
17201;SDS011;8717;53.588;10.176;2024-01-30T12:16:19;10.83;;;8.00;;
17201;SDS011;8717;53.588;10.176;2024-01-30T12:18:48;10.27;;;8.63;;
17201;SDS011;8717;53.588;10.176;2024-01-30T12:21:16;11.37;;;8.53;;
17201;SDS011;8717;53.588;10.176;2024-01-30T12:23:43;10.23;;;8.23;;
17201;SDS011;8717;53.588;10.176;2024-01-30T12:26:10;9.27;;;7.73;;
17201;SDS011;8717;53.588;10.176;2024-01-30T12:28:46;11.43;;;8.43;;
17201;SDS011;8717;53.588;10.176;2024-01-30T12:31:14;11.00;;;9.00;;
17201;SDS011;8717;53.588;10.176;2024-01-30T12:33:40;12.43;;;8.50;;
17201;SDS011;8717;53.588;10.176;2024-01-30T12:36:09;11.33;;;8.30;;
17201;SDS011;8717;53.588;10.176;2024-01-30T12:38:37;23.83;;;10.37;;
17201;SDS011;8717;53.588;10.176;2024-01-30T12:41:04;29.17;;;10.47;;
17201;SDS011;8717;53.588;10.176;2024-01-30T12:43:33;83.43;;;13.00;;
17201;SDS011;8717;53.588;10.176;2024-01-30T12:46:00;16.97;;;10.23;;
17201;SDS011;8717;53.588;10.176;2024-01-30T12:48:27;11.80;;;9.30;;
17201;SDS011;8717;53.588;10.176;2024-01-30T12:50:55;13.00;;;8.33;;
17201;SDS011;8717;53.588;10.176;2024-01-30T12:53:23;10.57;;;8.40;;
17201;SDS011;8717;53.588;10.176;2024-01-30T12:55:50;10.67;;;8.37;;
17201;SDS011;8717;53.588;10.176;2024-01-30T12:58:17;11.33;;;8.40;;
17201;SDS011;8717;53.588;10.176;2024-01-30T13:00:43;10.73;;;8.50;;
17201;SDS011;8717;53.588;10.176;2024-01-30T13:03:10;10.10;;;8.10;;
17201;SDS011;8717;53.588;10.176;2024-01-30T13:05:37;11.97;;;8.70;;
17201;SDS011;8717;53.588;10.176;2024-01-30T13:08:04;11.40;;;8.60;;
17201;SDS011;8717;53.588;10.176;2024-01-30T13:10:32;13.73;;;8.80;;
17201;SDS011;8717;53.588;10.176;2024-01-30T13:12:59;12.07;;;9.33;;
17201;SDS011;8717;53.588;10.176;2024-01-30T13:15:26;11.67;;;8.93;;
17201;SDS011;8717;53.588;10.176;2024-01-30T13:17:53;10.50;;;9.00;;
17201;SDS011;8717;53.588;10.176;2024-01-30T13:20:20;13.07;;;8.57;;
17201;SDS011;8717;53.588;10.176;2024-01-30T13:22:47;10.53;;;8.53;;
17201;SDS011;8717;53.588;10.176;2024-01-30T13:25:15;13.40;;;8.50;;
17201;SDS011;8717;53.588;10.176;2024-01-30T13:27:43;12.93;;;8.93;;
17201;SDS011;8717;53.588;10.176;2024-01-30T13:30:10;19.07;;;9.70;;
17201;SDS011;8717;53.588;10.176;2024-01-30T13:32:37;12.77;;;9.40;;
17201;SDS011;8717;53.588;10.176;2024-01-30T13:35:04;12.77;;;9.17;;
17201;SDS011;8717;53.588;10.176;2024-01-30T13:37:31;9.40;;;8.13;;
17201;SDS011;8717;53.588;10.176;2024-01-30T13:39:57;10.43;;;8.47;;
17201;SDS011;8717;53.588;10.176;2024-01-30T13:42:24;9.97;;;7.97;;
17201;SDS011;8717;53.588;10.176;2024-01-30T13:44:52;10.43;;;8.17;;
17201;SDS011;8717;53.588;10.176;2024-01-30T13:47:19;10.63;;;8.17;;
17201;SDS011;8717;53.588;10.176;2024-01-30T13:49:46;14.40;;;8.30;;
17201;SDS011;8717;53.588;10.176;2024-01-30T13:52:13;11.57;;;7.80;;
17201;SDS011;8717;53.588;10.176;2024-01-30T13:54:40;10.00;;;8.03;;
17201;SDS011;8717;53.588;10.176;2024-01-30T13:57:06;10.53;;;7.80;;
17201;SDS011;8717;53.588;10.176;2024-01-30T13:59:33;11.27;;;8.17;;
17201;SDS011;8717;53.588;10.176;2024-01-30T14:02:01;13.17;;;8.50;;
17201;SDS011;8717;53.588;10.176;2024-01-30T14:04:28;21.33;;;14.87;;
17201;SDS011;8717;53.588;10.176;2024-01-30T14:06:55;12.60;;;8.60;;
17201;SDS011;8717;53.588;10.176;2024-01-30T14:09:22;12.07;;;8.37;;
17201;SDS011;8717;53.588;10.176;2024-01-30T14:11:49;11.43;;;8.23;;
17201;SDS011;8717;53.588;10.176;2024-01-30T14:14:15;9.40;;;7.93;;
17201;SDS011;8717;53.588;10.176;2024-01-30T14:16:42;15.53;;;8.50;;
17201;SDS011;8717;53.588;10.176;2024-01-30T14:19:10;10.23;;;7.53;;
17201;SDS011;8717;53.588;10.176;2024-01-30T14:21:37;11.23;;;8.03;;
17201;SDS011;8717;53.588;10.176;2024-01-30T14:24:04;13.70;;;8.67;;
17201;SDS011;8717;53.588;10.176;2024-01-30T14:26:31;10.77;;;8.37;;
17201;SDS011;8717;53.588;10.176;2024-01-30T14:28:58;10.77;;;8.33;;
17201;SDS011;8717;53.588;10.176;2024-01-30T14:31:24;11.30;;;8.03;;
17201;SDS011;8717;53.588;10.176;2024-01-30T14:33:51;10.90;;;8.00;;